sensor_id;sensor_type;location;lat;lon;timestamp;temperature;humidity
65046;DHT22;54657;52.022;5.534;2024-01-30T00:01:44;10.30;93.50
65046;DHT22;54657;52.022;5.534;2024-01-30T00:04:09;10.30;93.50
65046;DHT22;54657;52.022;5.534;2024-01-30T00:06:35;10.30;93.60
65046;DHT22;54657;52.022;5.534;2024-01-30T00:09:00;10.30;93.50
65046;DHT22;54657;52.022;5.534;2024-01-30T00:11:26;10.30;93.50
65046;DHT22;54657;52.022;5.534;2024-01-30T00:13:52;10.30;93.60
65046;DHT22;54657;52.022;5.534;2024-01-30T00:16:21;10.30;93.70
65046;DHT22;54657;52.022;5.534;2024-01-30T00:18:48;10.30;93.60
65046;DHT22;54657;52.022;5.534;2024-01-30T00:21:13;10.30;93.50
65046;DHT22;54657;52.022;5.534;2024-01-30T00:23:39;10.20;93.80
65046;DHT22;54657;52.022;5.534;2024-01-30T00:26:04;10.20;93.60
65046;DHT22;54657;52.022;5.534;2024-01-30T00:28:30;10.20;93.60
65046;DHT22;54657;52.022;5.534;2024-01-30T00:30:56;10.20;93.70
65046;DHT22;54657;52.022;5.534;2024-01-30T00:33:22;10.20;93.80
65046;DHT22;54657;52.022;5.534;2024-01-30T00:35:47;10.20;93.90
65046;DHT22;54657;52.022;5.534;2024-01-30T00:38:13;10.20;93.70
65046;DHT22;54657;52.022;5.534;2024-01-30T00:40:38;10.20;93.70
65046;DHT22;54657;52.022;5.534;2024-01-30T00:43:04;10.20;93.80
65046;DHT22;54657;52.022;5.534;2024-01-30T00:45:29;10.20;93.80
65046;DHT22;54657;52.022;5.534;2024-01-30T00:47:55;10.20;93.60
65046;DHT22;54657;52.022;5.534;2024-01-30T00:50:21;10.20;93.70
65046;DHT22;54657;52.022;5.534;2024-01-30T00:52:46;10.20;93.70
65046;DHT22;54657;52.022;5.534;2024-01-30T00:55:12;10.20;93.80
65046;DHT22;54657;52.022;5.534;2024-01-30T00:57:38;10.20;93.80
65046;DHT22;54657;52.022;5.534;2024-01-30T01:00:04;10.20;93.70
65046;DHT22;54657;52.022;5.534;2024-01-30T01:02:31;10.20;93.70
65046;DHT22;54657;52.022;5.534;2024-01-30T01:04:57;10.20;93.70
65046;DHT22;54657;52.022;5.534;2024-01-30T01:07:23;10.10;93.60
65046;DHT22;54657;52.022;5.534;2024-01-30T01:09:48;10.10;93.70
65046;DHT22;54657;52.022;5.534;2024-01-30T01:12:14;10.10;93.70
65046;DHT22;54657;52.022;5.534;2024-01-30T01:14:39;10.10;93.70
65046;DHT22;54657;52.022;5.534;2024-01-30T01:17:05;10.10;93.70
65046;DHT22;54657;52.022;5.534;2024-01-30T01:19:30;9.90;93.70
65046;DHT22;54657;52.022;5.534;2024-01-30T01:21:56;9.80;93.80
65046;DHT22;54657;52.022;5.534;2024-01-30T01:24:21;9.80;94.00
65046;DHT22;54657;52.022;5.534;2024-01-30T01:26:47;9.70;94.00
65046;DHT22;54657;52.022;5.534;2024-01-30T01:29:13;9.60;94.00
65046;DHT22;54657;52.022;5.534;2024-01-30T01:31:38;9.60;94.20
65046;DHT22;54657;52.022;5.534;2024-01-30T01:34:11;9.50;94.20
65046;DHT22;54657;52.022;5.534;2024-01-30T01:36:37;9.50;94.20
65046;DHT22;54657;52.022;5.534;2024-01-30T01:39:03;9.40;94.30
65046;DHT22;54657;52.022;5.534;2024-01-30T01:41:34;9.30;94.30
65046;DHT22;54657;52.022;5.534;2024-01-30T01:44:00;9.30;94.40
65046;DHT22;54657;52.022;5.534;2024-01-30T01:46:27;9.30;94.40
65046;DHT22;54657;52.022;5.534;2024-01-30T01:48:55;9.30;94.40
65046;DHT22;54657;52.022;5.534;2024-01-30T01:51:22;9.20;94.40
65046;DHT22;54657;52.022;5.534;2024-01-30T01:53:48;9.20;94.30
65046;DHT22;54657;52.022;5.534;2024-01-30T01:56:14;9.20;94.40
65046;DHT22;54657;52.022;5.534;2024-01-30T01:58:40;9.10;94.40
65046;DHT22;54657;52.022;5.534;2024-01-30T02:01:07;9.10;94.40
65046;DHT22;54657;52.022;5.534;2024-01-30T02:03:34;9.10;94.40
65046;DHT22;54657;52.022;5.534;2024-01-30T02:06:00;9.10;94.50
65046;DHT22;54657;52.022;5.534;2024-01-30T02:08:27;9.00;94.50
65046;DHT22;54657;52.022;5.534;2024-01-30T02:10:53;9.00;94.60
65046;DHT22;54657;52.022;5.534;2024-01-30T02:13:20;9.00;94.50
65046;DHT22;54657;52.022;5.534;2024-01-30T02:15:51;9.00;94.60
65046;DHT22;54657;52.022;5.534;2024-01-30T02:18:17;9.00;94.50
65046;DHT22;54657;52.022;5.534;2024-01-30T02:20:43;9.00;94.50
65046;DHT22;54657;52.022;5.534;2024-01-30T02:23:09;9.00;94.50
65046;DHT22;54657;52.022;5.534;2024-01-30T02:25:42;9.00;94.50
65046;DHT22;54657;52.022;5.534;2024-01-30T02:28:14;8.90;94.60
65046;DHT22;54657;52.022;5.534;2024-01-30T02:30:40;8.90;94.50
65046;DHT22;54657;52.022;5.534;2024-01-30T02:33:06;8.90;94.50
65046;DHT22;54657;52.022;5.534;2024-01-30T02:35:31;8.90;94.60
65046;DHT22;54657;52.022;5.534;2024-01-30T02:37:57;8.90;94.70
65046;DHT22;54657;52.022;5.534;2024-01-30T02:40:22;8.90;94.60
65046;DHT22;54657;52.022;5.534;2024-01-30T02:42:48;8.90;94.60
65046;DHT22;54657;52.022;5.534;2024-01-30T02:45:14;8.90;94.60
65046;DHT22;54657;52.022;5.534;2024-01-30T02:47:40;8.90;94.60
65046;DHT22;54657;52.022;5.534;2024-01-30T02:50:06;8.90;94.60
65046;DHT22;54657;52.022;5.534;2024-01-30T02:52:32;8.90;94.50
65046;DHT22;54657;52.022;5.534;2024-01-30T02:54:57;8.90;94.50
65046;DHT22;54657;52.022;5.534;2024-01-30T02:57:23;8.80;94.60
65046;DHT22;54657;52.022;5.534;2024-01-30T02:59:49;8.90;94.70
65046;DHT22;54657;52.022;5.534;2024-01-30T03:02:14;8.90;94.60
65046;DHT22;54657;52.022;5.534;2024-01-30T03:04:43;8.90;94.50
65046;DHT22;54657;52.022;5.534;2024-01-30T03:07:09;8.90;94.60
65046;DHT22;54657;52.022;5.534;2024-01-30T03:09:34;8.90;94.50
65046;DHT22;54657;52.022;5.534;2024-01-30T03:12:00;8.90;94.50
65046;DHT22;54657;52.022;5.534;2024-01-30T03:14:26;8.90;94.50
65046;DHT22;54657;52.022;5.534;2024-01-30T03:16:51;8.90;94.50
65046;DHT22;54657;52.022;5.534;2024-01-30T03:19:17;8.90;94.50
65046;DHT22;54657;52.022;5.534;2024-01-30T03:21:44;8.80;94.40
65046;DHT22;54657;52.022;5.534;2024-01-30T03:24:09;8.90;94.50
65046;DHT22;54657;52.022;5.534;2024-01-30T03:26:35;8.80;94.60
65046;DHT22;54657;52.022;5.534;2024-01-30T03:29:00;8.80;94.50
65046;DHT22;54657;52.022;5.534;2024-01-30T03:31:26;8.80;94.50
65046;DHT22;54657;52.022;5.534;2024-01-30T03:33:52;8.80;94.60
65046;DHT22;54657;52.022;5.534;2024-01-30T03:36:18;8.80;94.60
65046;DHT22;54657;52.022;5.534;2024-01-30T03:38:43;8.80;94.60
65046;DHT22;54657;52.022;5.534;2024-01-30T03:41:09;8.80;94.60
65046;DHT22;54657;52.022;5.534;2024-01-30T03:43:35;8.80;94.60
65046;DHT22;54657;52.022;5.534;2024-01-30T03:46:01;8.80;94.60
65046;DHT22;54657;52.022;5.534;2024-01-30T03:48:28;8.80;94.70
65046;DHT22;54657;52.022;5.534;2024-01-30T03:50:53;8.80;94.50
65046;DHT22;54657;52.022;5.534;2024-01-30T03:53:19;8.90;94.50
65046;DHT22;54657;52.022;5.534;2024-01-30T03:55:44;8.90;94.60
65046;DHT22;54657;52.022;5.534;2024-01-30T03:58:10;8.90;94.50
65046;DHT22;54657;52.022;5.534;2024-01-30T04:00:35;8.90;94.50
65046;DHT22;54657;52.022;5.534;2024-01-30T04:03:01;8.90;94.60
65046;DHT22;54657;52.022;5.534;2024-01-30T04:05:26;9.00;94.60
65046;DHT22;54657;52.022;5.534;2024-01-30T04:07:52;8.90;94.50
65046;DHT22;54657;52.022;5.534;2024-01-30T04:10:17;9.00;94.50
65046;DHT22;54657;52.022;5.534;2024-01-30T04:12:43;8.90;94.50
65046;DHT22;54657;52.022;5.534;2024-01-30T04:15:09;9.00;94.60
65046;DHT22;54657;52.022;5.534;2024-01-30T04:17:34;9.10;94.50
65046;DHT22;54657;52.022;5.534;2024-01-30T04:20:00;9.10;94.50
65046;DHT22;54657;52.022;5.534;2024-01-30T04:22:25;9.10;94.50
65046;DHT22;54657;52.022;5.534;2024-01-30T04:24:51;9.10;94.40
65046;DHT22;54657;52.022;5.534;2024-01-30T04:27:17;9.10;94.50
65046;DHT22;54657;52.022;5.534;2024-01-30T04:29:42;9.20;94.60
65046;DHT22;54657;52.022;5.534;2024-01-30T04:32:08;9.20;94.70
65046;DHT22;54657;52.022;5.534;2024-01-30T04:34:35;9.30;94.60
65046;DHT22;54657;52.022;5.534;2024-01-30T04:37:01;9.30;94.50
65046;DHT22;54657;52.022;5.534;2024-01-30T04:39:26;9.40;94.40
65046;DHT22;54657;52.022;5.534;2024-01-30T04:41:52;9.40;94.30
65046;DHT22;54657;52.022;5.534;2024-01-30T04:44:18;9.40;94.30
65046;DHT22;54657;52.022;5.534;2024-01-30T04:46:43;9.40;94.40
65046;DHT22;54657;52.022;5.534;2024-01-30T04:49:09;9.50;94.30
65046;DHT22;54657;52.022;5.534;2024-01-30T04:51:34;9.40;94.30
65046;DHT22;54657;52.022;5.534;2024-01-30T04:54:00;9.40;94.40
65046;DHT22;54657;52.022;5.534;2024-01-30T04:56:25;9.30;94.30
65046;DHT22;54657;52.022;5.534;2024-01-30T04:58:51;9.30;94.50
65046;DHT22;54657;52.022;5.534;2024-01-30T05:01:17;9.30;94.50
65046;DHT22;54657;52.022;5.534;2024-01-30T05:03:42;9.30;94.50
65046;DHT22;54657;52.022;5.534;2024-01-30T05:06:08;9.30;94.50
65046;DHT22;54657;52.022;5.534;2024-01-30T05:08:34;9.40;94.50
65046;DHT22;54657;52.022;5.534;2024-01-30T05:11:02;9.30;94.50
65046;DHT22;54657;52.022;5.534;2024-01-30T05:13:33;9.30;94.60
65046;DHT22;54657;52.022;5.534;2024-01-30T05:15:58;9.40;94.60
65046;DHT22;54657;52.022;5.534;2024-01-30T05:18:24;9.40;94.60
65046;DHT22;54657;52.022;5.534;2024-01-30T05:20:50;9.50;94.70
65046;DHT22;54657;52.022;5.534;2024-01-30T05:23:16;9.50;94.60
65046;DHT22;54657;52.022;5.534;2024-01-30T05:25:41;9.50;94.70
65046;DHT22;54657;52.022;5.534;2024-01-30T05:28:07;9.50;94.60
65046;DHT22;54657;52.022;5.534;2024-01-30T05:30:33;9.60;94.60
65046;DHT22;54657;52.022;5.534;2024-01-30T05:32:58;9.60;94.50
65046;DHT22;54657;52.022;5.534;2024-01-30T05:35:24;9.60;94.50
65046;DHT22;54657;52.022;5.534;2024-01-30T05:37:49;9.70;94.60
65046;DHT22;54657;52.022;5.534;2024-01-30T05:40:15;9.70;94.40
65046;DHT22;54657;52.022;5.534;2024-01-30T05:42:41;9.60;94.50
65046;DHT22;54657;52.022;5.534;2024-01-30T05:45:07;9.70;94.50
65046;DHT22;54657;52.022;5.534;2024-01-30T05:47:34;9.70;94.50
65046;DHT22;54657;52.022;5.534;2024-01-30T05:49:59;9.70;94.50
65046;DHT22;54657;52.022;5.534;2024-01-30T05:52:25;9.70;94.50
65046;DHT22;54657;52.022;5.534;2024-01-30T05:54:50;9.70;94.60
65046;DHT22;54657;52.022;5.534;2024-01-30T05:57:16;9.70;94.80
65046;DHT22;54657;52.022;5.534;2024-01-30T05:59:42;9.70;95.00
65046;DHT22;54657;52.022;5.534;2024-01-30T06:02:10;9.70;94.70
65046;DHT22;54657;52.022;5.534;2024-01-30T06:04:36;9.80;94.80
65046;DHT22;54657;52.022;5.534;2024-01-30T06:07:02;9.80;94.70
65046;DHT22;54657;52.022;5.534;2024-01-30T06:09:28;9.80;94.90
65046;DHT22;54657;52.022;5.534;2024-01-30T06:11:54;9.90;94.90
65046;DHT22;54657;52.022;5.534;2024-01-30T06:14:20;9.90;94.80
65046;DHT22;54657;52.022;5.534;2024-01-30T06:16:45;10.00;94.80
65046;DHT22;54657;52.022;5.534;2024-01-30T06:19:11;10.00;94.70
65046;DHT22;54657;52.022;5.534;2024-01-30T06:21:37;10.00;94.80
65046;DHT22;54657;52.022;5.534;2024-01-30T06:24:03;10.00;94.70
65046;DHT22;54657;52.022;5.534;2024-01-30T06:26:29;10.00;94.70
65046;DHT22;54657;52.022;5.534;2024-01-30T06:28:55;10.00;94.70
65046;DHT22;54657;52.022;5.534;2024-01-30T06:31:20;10.00;94.80
65046;DHT22;54657;52.022;5.534;2024-01-30T06:33:49;10.10;94.70
65046;DHT22;54657;52.022;5.534;2024-01-30T06:36:15;10.00;94.70
65046;DHT22;54657;52.022;5.534;2024-01-30T06:38:41;10.00;94.70
65046;DHT22;54657;52.022;5.534;2024-01-30T06:41:07;10.00;94.80
65046;DHT22;54657;52.022;5.534;2024-01-30T06:43:32;10.00;95.00
65046;DHT22;54657;52.022;5.534;2024-01-30T06:45:58;10.00;94.90
65046;DHT22;54657;52.022;5.534;2024-01-30T06:48:24;10.00;95.00
65046;DHT22;54657;52.022;5.534;2024-01-30T06:50:52;10.10;94.90
65046;DHT22;54657;52.022;5.534;2024-01-30T06:53:19;10.10;95.00
65046;DHT22;54657;52.022;5.534;2024-01-30T06:55:44;10.10;95.00
65046;DHT22;54657;52.022;5.534;2024-01-30T06:58:10;10.10;95.10
65046;DHT22;54657;52.022;5.534;2024-01-30T07:00:35;10.10;95.00
65046;DHT22;54657;52.022;5.534;2024-01-30T07:03:01;10.10;95.20
65046;DHT22;54657;52.022;5.534;2024-01-30T07:05:27;10.10;95.20
65046;DHT22;54657;52.022;5.534;2024-01-30T07:07:52;10.10;95.30
65046;DHT22;54657;52.022;5.534;2024-01-30T07:10:18;10.10;95.30
65046;DHT22;54657;52.022;5.534;2024-01-30T07:12:44;10.10;95.40
65046;DHT22;54657;52.022;5.534;2024-01-30T07:15:10;10.10;95.50
65046;DHT22;54657;52.022;5.534;2024-01-30T07:17:35;10.10;95.30
65046;DHT22;54657;52.022;5.534;2024-01-30T07:20:01;10.10;95.40
65046;DHT22;54657;52.022;5.534;2024-01-30T07:22:30;10.00;95.60
65046;DHT22;54657;52.022;5.534;2024-01-30T07:24:56;10.00;95.70
65046;DHT22;54657;52.022;5.534;2024-01-30T07:27:22;10.00;95.80
65046;DHT22;54657;52.022;5.534;2024-01-30T07:29:47;10.00;95.70
65046;DHT22;54657;52.022;5.534;2024-01-30T07:32:13;10.10;95.60
65046;DHT22;54657;52.022;5.534;2024-01-30T07:34:38;10.10;95.80
65046;DHT22;54657;52.022;5.534;2024-01-30T07:37:04;10.10;95.70
65046;DHT22;54657;52.022;5.534;2024-01-30T07:39:29;10.10;96.00
65046;DHT22;54657;52.022;5.534;2024-01-30T07:41:55;10.10;95.70
65046;DHT22;54657;52.022;5.534;2024-01-30T07:44:21;10.20;95.80
65046;DHT22;54657;52.022;5.534;2024-01-30T07:46:47;10.10;95.70
65046;DHT22;54657;52.022;5.534;2024-01-30T07:49:12;10.10;96.00
65046;DHT22;54657;52.022;5.534;2024-01-30T07:51:39;10.10;95.90
65046;DHT22;54657;52.022;5.534;2024-01-30T07:54:14;10.10;96.00
65046;DHT22;54657;52.022;5.534;2024-01-30T07:56:40;10.10;96.10
65046;DHT22;54657;52.022;5.534;2024-01-30T07:59:09;10.10;96.00
65046;DHT22;54657;52.022;5.534;2024-01-30T08:01:34;10.20;95.80
65046;DHT22;54657;52.022;5.534;2024-01-30T08:04:00;10.20;96.00
65046;DHT22;54657;52.022;5.534;2024-01-30T08:06:25;10.20;95.90
65046;DHT22;54657;52.022;5.534;2024-01-30T08:08:51;10.20;95.90
65046;DHT22;54657;52.022;5.534;2024-01-30T08:11:20;10.30;95.90
65046;DHT22;54657;52.022;5.534;2024-01-30T08:13:45;10.30;95.80
65046;DHT22;54657;52.022;5.534;2024-01-30T08:16:11;10.30;95.80
65046;DHT22;54657;52.022;5.534;2024-01-30T08:18:37;10.40;95.80
65046;DHT22;54657;52.022;5.534;2024-01-30T08:21:03;10.40;96.10
65046;DHT22;54657;52.022;5.534;2024-01-30T08:23:28;10.40;96.20
65046;DHT22;54657;52.022;5.534;2024-01-30T08:25:54;10.40;96.00
65046;DHT22;54657;52.022;5.534;2024-01-30T08:28:19;10.40;95.90
65046;DHT22;54657;52.022;5.534;2024-01-30T08:30:45;10.40;95.90
65046;DHT22;54657;52.022;5.534;2024-01-30T08:33:10;10.40;96.00
65046;DHT22;54657;52.022;5.534;2024-01-30T08:35:36;10.50;95.90
65046;DHT22;54657;52.022;5.534;2024-01-30T08:38:02;10.50;95.90
65046;DHT22;54657;52.022;5.534;2024-01-30T08:40:29;10.50;96.10
65046;DHT22;54657;52.022;5.534;2024-01-30T08:42:55;10.50;96.20
65046;DHT22;54657;52.022;5.534;2024-01-30T08:45:20;10.50;96.20
65046;DHT22;54657;52.022;5.534;2024-01-30T08:47:46;10.60;96.20
65046;DHT22;54657;52.022;5.534;2024-01-30T08:50:12;10.60;96.10
65046;DHT22;54657;52.022;5.534;2024-01-30T08:52:37;10.60;96.10
65046;DHT22;54657;52.022;5.534;2024-01-30T08:55:03;10.70;96.00
65046;DHT22;54657;52.022;5.534;2024-01-30T08:57:30;10.80;95.90
65046;DHT22;54657;52.022;5.534;2024-01-30T08:59:56;10.80;96.00
65046;DHT22;54657;52.022;5.534;2024-01-30T09:02:21;10.80;96.00
65046;DHT22;54657;52.022;5.534;2024-01-30T09:04:47;10.80;96.00
65046;DHT22;54657;52.022;5.534;2024-01-30T09:07:13;10.90;96.00
65046;DHT22;54657;52.022;5.534;2024-01-30T09:09:39;10.90;95.90
65046;DHT22;54657;52.022;5.534;2024-01-30T09:12:06;10.90;95.80
65046;DHT22;54657;52.022;5.534;2024-01-30T09:14:35;10.90;95.90
65046;DHT22;54657;52.022;5.534;2024-01-30T09:17:00;11.00;95.80
65046;DHT22;54657;52.022;5.534;2024-01-30T09:19:26;11.00;95.80
65046;DHT22;54657;52.022;5.534;2024-01-30T09:21:52;11.00;95.90
65046;DHT22;54657;52.022;5.534;2024-01-30T09:24:17;11.00;96.00
65046;DHT22;54657;52.022;5.534;2024-01-30T09:26:43;11.10;95.90
65046;DHT22;54657;52.022;5.534;2024-01-30T09:29:08;11.10;96.20
65046;DHT22;54657;52.022;5.534;2024-01-30T09:31:34;11.10;95.90
65046;DHT22;54657;52.022;5.534;2024-01-30T09:33:59;11.20;96.10
65046;DHT22;54657;52.022;5.534;2024-01-30T09:36:25;11.20;96.30
65046;DHT22;54657;52.022;5.534;2024-01-30T09:38:50;11.20;96.20
65046;DHT22;54657;52.022;5.534;2024-01-30T09:41:18;11.30;96.20
65046;DHT22;54657;52.022;5.534;2024-01-30T09:43:47;11.40;96.20
65046;DHT22;54657;52.022;5.534;2024-01-30T09:46:15;11.40;96.30
65046;DHT22;54657;52.022;5.534;2024-01-30T09:48:41;11.50;96.20
65046;DHT22;54657;52.022;5.534;2024-01-30T09:51:09;11.50;96.20
65046;DHT22;54657;52.022;5.534;2024-01-30T09:53:36;11.60;96.30
65046;DHT22;54657;52.022;5.534;2024-01-30T09:56:03;11.60;96.10
65046;DHT22;54657;52.022;5.534;2024-01-30T09:58:29;11.60;96.10
65046;DHT22;54657;52.022;5.534;2024-01-30T10:00:55;11.70;96.10
65046;DHT22;54657;52.022;5.534;2024-01-30T10:03:20;11.70;96.10
65046;DHT22;54657;52.022;5.534;2024-01-30T10:05:51;11.70;96.20
65046;DHT22;54657;52.022;5.534;2024-01-30T10:08:19;11.70;96.20
65046;DHT22;54657;52.022;5.534;2024-01-30T10:10:46;11.80;95.90
65046;DHT22;54657;52.022;5.534;2024-01-30T10:13:12;11.80;96.20
65046;DHT22;54657;52.022;5.534;2024-01-30T10:15:38;11.90;96.20
65046;DHT22;54657;52.022;5.534;2024-01-30T10:18:04;11.90;96.00
65046;DHT22;54657;52.022;5.534;2024-01-30T10:20:32;11.90;96.00
65046;DHT22;54657;52.022;5.534;2024-01-30T10:22:57;12.00;95.90
65046;DHT22;54657;52.022;5.534;2024-01-30T10:25:23;12.00;95.80
65046;DHT22;54657;52.022;5.534;2024-01-30T10:27:55;12.10;95.80
65046;DHT22;54657;52.022;5.534;2024-01-30T10:30:22;12.10;95.70
65046;DHT22;54657;52.022;5.534;2024-01-30T10:32:48;12.10;95.70
65046;DHT22;54657;52.022;5.534;2024-01-30T10:35:14;12.20;95.60
65046;DHT22;54657;52.022;5.534;2024-01-30T10:37:41;12.20;95.60
65046;DHT22;54657;52.022;5.534;2024-01-30T10:40:09;12.30;95.60
65046;DHT22;54657;52.022;5.534;2024-01-30T10:42:36;12.30;95.60
65046;DHT22;54657;52.022;5.534;2024-01-30T10:45:11;12.40;95.50
65046;DHT22;54657;52.022;5.534;2024-01-30T10:47:48;12.40;95.50
65046;DHT22;54657;52.022;5.534;2024-01-30T10:50:15;12.50;95.50
65046;DHT22;54657;52.022;5.534;2024-01-30T10:52:41;12.60;95.50
65046;DHT22;54657;52.022;5.534;2024-01-30T10:55:08;12.60;95.40
65046;DHT22;54657;52.022;5.534;2024-01-30T10:57:37;12.70;95.30
65046;DHT22;54657;52.022;5.534;2024-01-30T11:00:14;12.70;95.20
65046;DHT22;54657;52.022;5.534;2024-01-30T11:02:45;12.70;95.20
65046;DHT22;54657;52.022;5.534;2024-01-30T11:05:12;12.80;95.20
65046;DHT22;54657;52.022;5.534;2024-01-30T11:07:39;12.80;95.20
65046;DHT22;54657;52.022;5.534;2024-01-30T11:10:06;12.80;95.20
65046;DHT22;54657;52.022;5.534;2024-01-30T11:12:38;12.80;95.30
65046;DHT22;54657;52.022;5.534;2024-01-30T11:15:08;12.80;95.00
65046;DHT22;54657;52.022;5.534;2024-01-30T11:22:49;12.80;94.70
65046;DHT22;54657;52.022;5.534;2024-01-30T11:25:17;12.80;94.60
65046;DHT22;54657;52.022;5.534;2024-01-30T11:27:44;12.80;94.70
65046;DHT22;54657;52.022;5.534;2024-01-30T11:30:10;12.80;94.60
65046;DHT22;54657;52.022;5.534;2024-01-30T11:32:36;12.80;94.50
65046;DHT22;54657;52.022;5.534;2024-01-30T11:35:05;12.80;94.40
65046;DHT22;54657;52.022;5.534;2024-01-30T11:37:31;12.80;94.20
65046;DHT22;54657;52.022;5.534;2024-01-30T11:39:58;12.70;94.00
65046;DHT22;54657;52.022;5.534;2024-01-30T11:42:24;12.70;94.10
65046;DHT22;54657;52.022;5.534;2024-01-30T11:44:53;12.70;93.90
65046;DHT22;54657;52.022;5.534;2024-01-30T11:47:19;12.60;93.70
65046;DHT22;54657;52.022;5.534;2024-01-30T11:49:45;12.60;93.70
65046;DHT22;54657;52.022;5.534;2024-01-30T11:52:10;12.70;93.60
65046;DHT22;54657;52.022;5.534;2024-01-30T11:54:39;12.60;93.30
65046;DHT22;54657;52.022;5.534;2024-01-30T11:57:05;12.60;93.40
65046;DHT22;54657;52.022;5.534;2024-01-30T11:59:30;12.60;93.50
65046;DHT22;54657;52.022;5.534;2024-01-30T12:01:56;12.60;93.40
65046;DHT22;54657;52.022;5.534;2024-01-30T12:04:22;12.60;93.50
65046;DHT22;54657;52.022;5.534;2024-01-30T12:06:51;12.50;93.60
65046;DHT22;54657;52.022;5.534;2024-01-30T12:09:16;12.50;93.80
65046;DHT22;54657;52.022;5.534;2024-01-30T12:11:46;12.40;93.80
65046;DHT22;54657;52.022;5.534;2024-01-30T12:14:12;12.30;94.10
65046;DHT22;54657;52.022;5.534;2024-01-30T12:16:38;12.30;93.90
65046;DHT22;54657;52.022;5.534;2024-01-30T12:19:04;12.20;93.80
65046;DHT22;54657;52.022;5.534;2024-01-30T12:21:29;12.10;93.70
65046;DHT22;54657;52.022;5.534;2024-01-30T12:23:56;12.10;93.70
65046;DHT22;54657;52.022;5.534;2024-01-30T12:26:24;12.10;93.70
65046;DHT22;54657;52.022;5.534;2024-01-30T12:28:53;12.10;93.70
65046;DHT22;54657;52.022;5.534;2024-01-30T12:31:25;12.10;93.70
65046;DHT22;54657;52.022;5.534;2024-01-30T12:33:52;12.00;93.10
65046;DHT22;54657;52.022;5.534;2024-01-30T12:36:18;12.00;93.60
65046;DHT22;54657;52.022;5.534;2024-01-30T12:38:43;12.00;93.50
65046;DHT22;54657;52.022;5.534;2024-01-30T12:41:09;12.00;93.40
65046;DHT22;54657;52.022;5.534;2024-01-30T12:43:35;12.00;93.50
65046;DHT22;54657;52.022;5.534;2024-01-30T12:46:02;12.10;93.40
65046;DHT22;54657;52.022;5.534;2024-01-30T12:48:28;12.10;93.20
65046;DHT22;54657;52.022;5.534;2024-01-30T12:50:55;12.10;93.20
65046;DHT22;54657;52.022;5.534;2024-01-30T12:53:21;12.00;93.30
65046;DHT22;54657;52.022;5.534;2024-01-30T12:55:47;11.90;93.40
65046;DHT22;54657;52.022;5.534;2024-01-30T12:58:12;11.80;93.50
65046;DHT22;54657;52.022;5.534;2024-01-30T13:00:38;11.70;93.60
65046;DHT22;54657;52.022;5.534;2024-01-30T13:03:04;11.60;93.70
65046;DHT22;54657;52.022;5.534;2024-01-30T13:05:29;11.50;93.80
65046;DHT22;54657;52.022;5.534;2024-01-30T13:07:55;11.30;94.00
65046;DHT22;54657;52.022;5.534;2024-01-30T13:10:22;11.20;94.10
65046;DHT22;54657;52.022;5.534;2024-01-30T13:12:48;11.10;94.10
65046;DHT22;54657;52.022;5.534;2024-01-30T13:15:14;11.00;94.10
65046;DHT22;54657;52.022;5.534;2024-01-30T13:17:39;11.00;94.10
65046;DHT22;54657;52.022;5.534;2024-01-30T13:20:05;10.90;94.20
65046;DHT22;54657;52.022;5.534;2024-01-30T13:22:33;10.80;94.20
65046;DHT22;54657;52.022;5.534;2024-01-30T13:24:59;10.90;94.20
65046;DHT22;54657;52.022;5.534;2024-01-30T13:27:24;10.90;94.30
65046;DHT22;54657;52.022;5.534;2024-01-30T13:29:50;10.90;94.20
65046;DHT22;54657;52.022;5.534;2024-01-30T13:32:16;10.90;94.20
65046;DHT22;54657;52.022;5.534;2024-01-30T13:34:41;10.90;94.10
65046;DHT22;54657;52.022;5.534;2024-01-30T13:37:08;10.90;94.10
65046;DHT22;54657;52.022;5.534;2024-01-30T13:39:34;10.90;94.10
65046;DHT22;54657;52.022;5.534;2024-01-30T13:41:59;10.90;94.00
65046;DHT22;54657;52.022;5.534;2024-01-30T13:44:25;11.00;94.00
65046;DHT22;54657;52.022;5.534;2024-01-30T13:46:50;11.00;93.90
65046;DHT22;54657;52.022;5.534;2024-01-30T13:49:16;11.00;93.90
65046;DHT22;54657;52.022;5.534;2024-01-30T13:51:42;11.10;93.90
65046;DHT22;54657;52.022;5.534;2024-01-30T13:54:07;11.00;93.80
65046;DHT22;54657;52.022;5.534;2024-01-30T13:56:33;11.00;93.80
65046;DHT22;54657;52.022;5.534;2024-01-30T13:58:59;11.00;93.90
65046;DHT22;54657;52.022;5.534;2024-01-30T14:01:26;11.00;94.00
65046;DHT22;54657;52.022;5.534;2024-01-30T14:03:52;11.00;94.00
65046;DHT22;54657;52.022;5.534;2024-01-30T14:06:18;10.90;94.10
65046;DHT22;54657;52.022;5.534;2024-01-30T14:08:43;10.80;94.20
65046;DHT22;54657;52.022;5.534;2024-01-30T14:11:09;10.80;94.40
65046;DHT22;54657;52.022;5.534;2024-01-30T14:13:35;10.70;94.50
65046;DHT22;54657;52.022;5.534;2024-01-30T14:16:00;10.70;94.60
65046;DHT22;54657;52.022;5.534;2024-01-30T14:18:26;10.70;94.70
65046;DHT22;54657;52.022;5.534;2024-01-30T14:20:52;10.60;94.90
65046;DHT22;54657;52.022;5.534;2024-01-30T14:23:18;10.60;95.00
65046;DHT22;54657;52.022;5.534;2024-01-30T14:25:43;10.50;95.10
65046;DHT22;54657;52.022;5.534;2024-01-30T14:28:09;10.40;95.20
65046;DHT22;54657;52.022;5.534;2024-01-30T14:30:35;10.40;95.30
65046;DHT22;54657;52.022;5.534;2024-01-30T14:33:01;10.40;95.20
65046;DHT22;54657;52.022;5.534;2024-01-30T14:35:27;10.40;95.20
65046;DHT22;54657;52.022;5.534;2024-01-30T14:37:52;10.40;95.10
65046;DHT22;54657;52.022;5.534;2024-01-30T14:40:18;10.40;95.30
65046;DHT22;54657;52.022;5.534;2024-01-30T14:42:45;10.30;95.20
65046;DHT22;54657;52.022;5.534;2024-01-30T14:45:11;10.40;95.40
65046;DHT22;54657;52.022;5.534;2024-01-30T14:47:37;10.40;95.30
65046;DHT22;54657;52.022;5.534;2024-01-30T14:50:03;10.40;95.20
65046;DHT22;54657;52.022;5.534;2024-01-30T14:52:31;10.40;95.10
65046;DHT22;54657;52.022;5.534;2024-01-30T14:54:57;10.40;95.20
65046;DHT22;54657;52.022;5.534;2024-01-30T14:57:24;10.40;95.10
65046;DHT22;54657;52.022;5.534;2024-01-30T14:59:49;10.40;95.10
65046;DHT22;54657;52.022;5.534;2024-01-30T15:02:15;10.40;95.20
65046;DHT22;54657;52.022;5.534;2024-01-30T15:04:40;10.40;95.10
65046;DHT22;54657;52.022;5.534;2024-01-30T15:07:06;10.40;95.10
65046;DHT22;54657;52.022;5.534;2024-01-30T15:09:32;10.40;95.20
65046;DHT22;54657;52.022;5.534;2024-01-30T15:11:58;10.30;95.40
65046;DHT22;54657;52.022;5.534;2024-01-30T15:14:23;10.20;95.50
65046;DHT22;54657;52.022;5.534;2024-01-30T15:16:49;10.20;95.70
65046;DHT22;54657;52.022;5.534;2024-01-30T15:19:15;10.20;95.50
65046;DHT22;54657;52.022;5.534;2024-01-30T15:21:41;10.20;95.70
65046;DHT22;54657;52.022;5.534;2024-01-30T15:24:07;10.20;95.70
65046;DHT22;54657;52.022;5.534;2024-01-30T15:26:32;10.10;95.80
65046;DHT22;54657;52.022;5.534;2024-01-30T15:28:58;10.00;95.90
65046;DHT22;54657;52.022;5.534;2024-01-30T15:31:24;10.00;96.20
65046;DHT22;54657;52.022;5.534;2024-01-30T15:33:49;10.00;96.20